sensor_id;sensor_type;location;lat;lon;timestamp;pressure;altitude;pressure_sealevel;temperature;humidity
61119;BME280;51448;51.660;5.824;2024-03-29T00:01:37;99095.22;;;9.00;69.46
61119;BME280;51448;51.660;5.824;2024-03-29T00:04:04;99096.03;;;9.01;69.38
61119;BME280;51448;51.660;5.824;2024-03-29T00:06:31;99087.69;;;8.97;69.66
61119;BME280;51448;51.660;5.824;2024-03-29T00:08:57;99095.13;;;8.96;70.04
61119;BME280;51448;51.660;5.824;2024-03-29T00:11:24;99092.63;;;8.91;70.32
61119;BME280;51448;51.660;5.824;2024-03-29T00:13:51;99081.44;;;8.84;70.69
61119;BME280;51448;51.660;5.824;2024-03-29T00:16:17;99089.50;;;8.77;71.18
61119;BME280;51448;51.660;5.824;2024-03-29T00:18:44;99081.13;;;8.74;71.11
61119;BME280;51448;51.660;5.824;2024-03-29T00:21:10;99079.09;;;8.71;71.20
61119;BME280;51448;51.660;5.824;2024-03-29T00:23:37;99081.03;;;8.70;71.42
61119;BME280;51448;51.660;5.824;2024-03-29T00:26:03;99079.41;;;8.69;71.10
61119;BME280;51448;51.660;5.824;2024-03-29T00:28:30;99082.09;;;8.65;71.61
61119;BME280;51448;51.660;5.824;2024-03-29T00:30:56;99092.53;;;8.60;71.52
61119;BME280;51448;51.660;5.824;2024-03-29T00:33:24;99098.72;;;8.57;71.56
61119;BME280;51448;51.660;5.824;2024-03-29T00:35:50;99105.38;;;8.56;71.55
61119;BME280;51448;51.660;5.824;2024-03-29T00:38:17;99104.09;;;8.53;72.01
61119;BME280;51448;51.660;5.824;2024-03-29T00:40:43;99106.41;;;8.51;71.90
61119;BME280;51448;51.660;5.824;2024-03-29T00:43:10;99106.28;;;8.48;72.10
61119;BME280;51448;51.660;5.824;2024-03-29T00:45:36;99096.00;;;8.45;72.51
61119;BME280;51448;51.660;5.824;2024-03-29T00:48:03;99100.72;;;8.44;72.25
61119;BME280;51448;51.660;5.824;2024-03-29T00:50:30;99095.09;;;8.40;72.84
61119;BME280;51448;51.660;5.824;2024-03-29T00:52:56;99103.69;;;8.39;72.77
61119;BME280;51448;51.660;5.824;2024-03-29T00:55:23;99100.94;;;8.39;73.07
61119;BME280;51448;51.660;5.824;2024-03-29T00:57:50;99111.16;;;8.38;72.91
61119;BME280;51448;51.660;5.824;2024-03-29T01:00:17;99108.72;;;8.37;73.21
61119;BME280;51448;51.660;5.824;2024-03-29T01:02:44;99108.59;;;8.33;73.14
61119;BME280;51448;51.660;5.824;2024-03-29T01:05:10;99107.69;;;8.29;73.45
61119;BME280;51448;51.660;5.824;2024-03-29T01:07:40;99107.69;;;8.29;73.36
61119;BME280;51448;51.660;5.824;2024-03-29T01:10:08;99109.63;;;8.29;73.61
61119;BME280;51448;51.660;5.824;2024-03-29T01:12:36;99115.81;;;8.26;73.46
61119;BME280;51448;51.660;5.824;2024-03-29T01:15:02;99109.06;;;8.23;73.99
61119;BME280;51448;51.660;5.824;2024-03-29T01:17:29;99107.47;;;8.22;73.89
61119;BME280;51448;51.660;5.824;2024-03-29T01:19:56;99115.72;;;8.22;74.08
61119;BME280;51448;51.660;5.824;2024-03-29T01:22:23;99107.47;;;8.22;74.08
61119;BME280;51448;51.660;5.824;2024-03-29T01:24:49;99103.13;;;8.21;74.15
61119;BME280;51448;51.660;5.824;2024-03-29T01:27:16;99104.72;;;8.22;74.31
61119;BME280;51448;51.660;5.824;2024-03-29T01:29:42;99093.75;;;8.22;74.28
61119;BME280;51448;51.660;5.824;2024-03-29T01:32:09;99089.41;;;8.21;73.94
61119;BME280;51448;51.660;5.824;2024-03-29T01:34:35;99094.88;;;8.21;74.04
61119;BME280;51448;51.660;5.824;2024-03-29T01:37:02;99092.94;;;8.22;74.37
61119;BME280;51448;51.660;5.824;2024-03-29T01:39:28;99082.41;;;8.24;74.03
61119;BME280;51448;51.660;5.824;2024-03-29T01:41:57;99076.91;;;8.24;74.52
61119;BME280;51448;51.660;5.824;2024-03-29T01:44:24;99076.09;;;8.23;74.44
61119;BME280;51448;51.660;5.824;2024-03-29T01:46:50;99070.59;;;8.23;74.69
61119;BME280;51448;51.660;5.824;2024-03-29T01:49:17;99056.06;;;8.23;75.03
61119;BME280;51448;51.660;5.824;2024-03-29T01:51:44;99048.63;;;8.23;74.76
61119;BME280;51448;51.660;5.824;2024-03-29T01:54:11;99031.34;;;8.23;75.03
61119;BME280;51448;51.660;5.824;2024-03-29T01:56:39;99015.66;;;8.23;75.03
61119;BME280;51448;51.660;5.824;2024-03-29T01:59:16;99032.94;;;8.24;75.22
61119;BME280;51448;51.660;5.824;2024-03-29T02:01:45;99028.25;;;8.24;75.40
61119;BME280;51448;51.660;5.824;2024-03-29T02:04:12;99018.84;;;8.25;75.19
61119;BME280;51448;51.660;5.824;2024-03-29T02:06:39;99029.94;;;8.29;75.29
61119;BME280;51448;51.660;5.824;2024-03-29T02:09:05;99026.50;;;8.32;75.65
61119;BME280;51448;51.660;5.824;2024-03-29T02:11:34;99032.81;;;8.32;75.61
61119;BME280;51448;51.660;5.824;2024-03-29T02:14:01;99051.69;;;8.34;75.51
61119;BME280;51448;51.660;5.824;2024-03-29T02:16:28;99048.59;;;8.35;75.60
61119;BME280;51448;51.660;5.824;2024-03-29T02:18:54;99060.97;;;8.41;75.58
61119;BME280;51448;51.660;5.824;2024-03-29T02:21:21;99060.63;;;8.43;75.24
61119;BME280;51448;51.660;5.824;2024-03-29T02:24:25;99071.38;;;8.48;75.51
61119;BME280;51448;51.660;5.824;2024-03-29T02:26:44;99074.22;;;8.52;75.29
61119;BME280;51448;51.660;5.824;2024-03-29T02:29:11;99075.13;;;8.56;75.13
61119;BME280;51448;51.660;5.824;2024-03-29T02:31:38;99078.78;;;8.60;74.99
61119;BME280;51448;51.660;5.824;2024-03-29T02:34:05;99081.38;;;8.68;74.53
61119;BME280;51448;51.660;5.824;2024-03-29T02:36:34;99084.25;;;8.72;74.58
61119;BME280;51448;51.660;5.824;2024-03-29T02:39:00;99078.50;;;8.77;74.49
61119;BME280;51448;51.660;5.824;2024-03-29T02:41:27;99068.41;;;8.81;74.50
61119;BME280;51448;51.660;5.824;2024-03-29T02:43:56;99063.78;;;8.85;74.39
61119;BME280;51448;51.660;5.824;2024-03-29T02:46:23;99079.16;;;8.86;74.64
61119;BME280;51448;51.660;5.824;2024-03-29T02:48:50;99085.78;;;8.85;74.60
61119;BME280;51448;51.660;5.824;2024-03-29T02:51:17;99077.19;;;8.87;75.05
61119;BME280;51448;51.660;5.824;2024-03-29T02:53:43;99080.75;;;8.87;74.94
61119;BME280;51448;51.660;5.824;2024-03-29T02:56:10;99106.38;;;8.91;74.66
61119;BME280;51448;51.660;5.824;2024-03-29T02:58:37;99092.28;;;8.93;74.96
61119;BME280;51448;51.660;5.824;2024-03-29T03:01:10;99089.63;;;8.96;74.93
61119;BME280;51448;51.660;5.824;2024-03-29T03:03:36;99079.09;;;8.99;74.93
61119;BME280;51448;51.660;5.824;2024-03-29T03:06:03;99098.09;;;9.04;74.89
61119;BME280;51448;51.660;5.824;2024-03-29T03:08:30;99097.03;;;9.08;74.96
61119;BME280;51448;51.660;5.824;2024-03-29T03:11:16;99114.78;;;9.11;75.04
61119;BME280;51448;51.660;5.824;2024-03-29T03:13:42;99100.34;;;9.14;75.12
61119;BME280;51448;51.660;5.824;2024-03-29T03:16:09;99104.69;;;9.15;75.38
61119;BME280;51448;51.660;5.824;2024-03-29T03:18:35;99118.88;;;9.17;75.59
61119;BME280;51448;51.660;5.824;2024-03-29T03:21:02;99124.38;;;9.17;75.84
61119;BME280;51448;51.660;5.824;2024-03-29T03:23:29;99118.88;;;9.17;75.94
61119;BME280;51448;51.660;5.824;2024-03-29T03:26:01;99112.69;;;9.20;76.44
61119;BME280;51448;51.660;5.824;2024-03-29T03:28:31;99123.22;;;9.18;76.63
61119;BME280;51448;51.660;5.824;2024-03-29T03:30:58;99117.72;;;9.18;77.04
61119;BME280;51448;51.660;5.824;2024-03-29T03:33:24;99119.69;;;9.17;77.75
61119;BME280;51448;51.660;5.824;2024-03-29T03:35:51;99115.69;;;9.15;77.65
61119;BME280;51448;51.660;5.824;2024-03-29T03:38:17;99110.19;;;9.15;77.74
61119;BME280;51448;51.660;5.824;2024-03-29T03:40:44;99112.94;;;9.15;78.21
61119;BME280;51448;51.660;5.824;2024-03-29T03:43:10;99114.09;;;9.14;77.88
61119;BME280;51448;51.660;5.824;2024-03-29T03:45:40;99101.94;;;9.15;78.16
61119;BME280;51448;51.660;5.824;2024-03-29T03:48:09;99118.44;;;9.15;78.22
61119;BME280;51448;51.660;5.824;2024-03-29T03:50:38;99123.47;;;9.13;78.43
61119;BME280;51448;51.660;5.824;2024-03-29T03:53:04;99112.47;;;9.13;78.62
61119;BME280;51448;51.660;5.824;2024-03-29T03:55:35;99129.34;;;9.11;78.41
61119;BME280;51448;51.660;5.824;2024-03-29T03:58:05;99112.38;;;9.09;78.59
61119;BME280;51448;51.660;5.824;2024-03-29T04:00:32;99106.88;;;9.09;78.61
61119;BME280;51448;51.660;5.824;2024-03-29T04:02:59;99122.25;;;9.10;78.87
61119;BME280;51448;51.660;5.824;2024-03-29T04:05:26;99137.59;;;9.11;78.76
61119;BME280;51448;51.660;5.824;2024-03-29T04:07:52;99128.53;;;9.11;78.76
61119;BME280;51448;51.660;5.824;2024-03-29T04:10:19;99142.31;;;9.11;78.96
61119;BME280;51448;51.660;5.824;2024-03-29T04:12:45;99134.41;;;9.09;79.22
61119;BME280;51448;51.660;5.824;2024-03-29T04:15:12;99129.22;;;9.08;79.48
61119;BME280;51448;51.660;5.824;2024-03-29T04:17:38;99133.50;;;9.05;79.90
61119;BME280;51448;51.660;5.824;2024-03-29T04:20:05;99132.59;;;9.01;79.75
61119;BME280;51448;51.660;5.824;2024-03-29T04:22:32;99136.84;;;8.99;80.24
61119;BME280;51448;51.660;5.824;2024-03-29T04:24:59;99124.94;;;8.94;80.95
61119;BME280;51448;51.660;5.824;2024-03-29T04:27:26;99133.44;;;8.89;81.17
61119;BME280;51448;51.660;5.824;2024-03-29T04:29:53;99144.34;;;8.86;81.84
61119;BME280;51448;51.660;5.824;2024-03-29T04:32:20;99136.00;;;8.82;82.87
61119;BME280;51448;51.660;5.824;2024-03-29T04:34:50;99139.78;;;8.78;83.18
61119;BME280;51448;51.660;5.824;2024-03-29T04:37:18;99127.09;;;8.73;83.56
61119;BME280;51448;51.660;5.824;2024-03-29T04:39:46;99123.53;;;8.73;85.19
61119;BME280;51448;51.660;5.824;2024-03-29T04:42:12;99124.56;;;8.68;85.65
61119;BME280;51448;51.660;5.824;2024-03-29T04:44:41;99122.06;;;8.63;85.98
61119;BME280;51448;51.660;5.824;2024-03-29T04:47:08;99129.88;;;8.61;86.51
61119;BME280;51448;51.660;5.824;2024-03-29T04:49:35;99137.66;;;8.59;87.36
61119;BME280;51448;51.660;5.824;2024-03-29T04:52:07;99148.22;;;8.57;88.35
61119;BME280;51448;51.660;5.824;2024-03-29T04:54:34;99143.41;;;8.54;87.98
61119;BME280;51448;51.660;5.824;2024-03-29T04:57:01;99132.31;;;8.50;88.30
61119;BME280;51448;51.660;5.824;2024-03-29T04:59:29;99131.03;;;8.48;88.77
61119;BME280;51448;51.660;5.824;2024-03-29T05:01:56;99126.59;;;8.43;89.34
61119;BME280;51448;51.660;5.824;2024-03-29T05:04:23;99130.81;;;8.40;89.64
61119;BME280;51448;51.660;5.824;2024-03-29T05:09:20;99126.38;;;8.36;90.78
61119;BME280;51448;51.660;5.824;2024-03-29T05:11:47;99140.78;;;8.33;91.17
61119;BME280;51448;51.660;5.824;2024-03-29T05:14:15;99135.63;;;8.31;92.00
61119;BME280;51448;51.660;5.824;2024-03-29T05:16:46;99128.06;;;8.28;92.55
61119;BME280;51448;51.660;5.824;2024-03-29T05:19:14;99130.34;;;8.26;92.76
61119;BME280;51448;51.660;5.824;2024-03-29T05:21:42;99124.41;;;8.24;93.08
61119;BME280;51448;51.660;5.824;2024-03-29T05:24:08;99119.63;;;8.21;93.01
61119;BME280;51448;51.660;5.824;2024-03-29T05:26:35;99127.88;;;8.21;93.71
61119;BME280;51448;51.660;5.824;2024-03-29T05:29:02;99134.47;;;8.20;94.32
61119;BME280;51448;51.660;5.824;2024-03-29T05:31:30;99130.84;;;8.16;94.37
61119;BME280;51448;51.660;5.824;2024-03-29T05:33:57;99132.31;;;8.13;94.19
61119;BME280;51448;51.660;5.824;2024-03-29T05:36:23;99131.53;;;8.13;94.13
61119;BME280;51448;51.660;5.824;2024-03-29T05:38:50;99119.72;;;8.12;94.18
61119;BME280;51448;51.660;5.824;2024-03-29T05:41:16;99116.19;;;8.12;94.54
61119;BME280;51448;51.660;5.824;2024-03-29T05:43:43;99108.38;;;8.14;94.68
61119;BME280;51448;51.660;5.824;2024-03-29T05:46:10;99112.28;;;8.13;95.11
61119;BME280;51448;51.660;5.824;2024-03-29T05:48:36;99117.78;;;8.13;94.99
61119;BME280;51448;51.660;5.824;2024-03-29T05:51:04;99098.91;;;8.11;94.98
61119;BME280;51448;51.660;5.824;2024-03-29T05:53:31;99109.09;;;8.11;95.17
61119;BME280;51448;51.660;5.824;2024-03-29T05:55:57;99128.34;;;8.11;95.52
61119;BME280;51448;51.660;5.824;2024-03-29T05:58:24;99125.09;;;8.09;95.91
61119;BME280;51448;51.660;5.824;2024-03-29T06:00:50;99129.72;;;8.05;95.89
61119;BME280;51448;51.660;5.824;2024-03-29T06:03:17;99142.97;;;8.03;97.18
61119;BME280;51448;51.660;5.824;2024-03-29T06:05:43;99141.72;;;8.00;97.75
61119;BME280;51448;51.660;5.824;2024-03-29T06:08:10;99142.03;;;7.99;98.06
61119;BME280;51448;51.660;5.824;2024-03-29T06:10:36;99150.63;;;7.97;98.75
61119;BME280;51448;51.660;5.824;2024-03-29T06:13:03;99139.66;;;7.97;98.76
61119;BME280;51448;51.660;5.824;2024-03-29T06:15:34;99153.03;;;7.99;99.07
61119;BME280;51448;51.660;5.824;2024-03-29T06:18:19;99162.41;;;7.98;99.39
61119;BME280;51448;51.660;5.824;2024-03-29T06:20:49;99160.16;;;8.00;99.94
61119;BME280;51448;51.660;5.824;2024-03-29T06:23:15;99164.03;;;7.99;99.92
61119;BME280;51448;51.660;5.824;2024-03-29T06:25:44;99170.66;;;7.98;100.00
61119;BME280;51448;51.660;5.824;2024-03-29T06:28:12;99166.75;;;7.99;100.00
61119;BME280;51448;51.660;5.824;2024-03-29T06:30:40;99148.69;;;7.98;100.00
61119;BME280;51448;51.660;5.824;2024-03-29T06:33:07;99130.25;;;7.98;100.00
61119;BME280;51448;51.660;5.824;2024-03-29T06:35:34;99132.22;;;7.98;100.00
61119;BME280;51448;51.660;5.824;2024-03-29T06:38:01;99140.44;;;7.98;100.00
61119;BME280;51448;51.660;5.824;2024-03-29T06:40:28;99145.28;;;8.01;100.00
61119;BME280;51448;51.660;5.824;2024-03-29T06:42:55;99146.06;;;8.01;100.00
61119;BME280;51448;51.660;5.824;2024-03-29T06:45:25;99141.81;;;8.04;100.00
61119;BME280;51448;51.660;5.824;2024-03-29T06:47:51;99133.25;;;8.05;100.00
61119;BME280;51448;51.660;5.824;2024-03-29T06:50:18;99136.81;;;8.06;100.00
61119;BME280;51448;51.660;5.824;2024-03-29T06:52:45;99142.28;;;8.06;100.00
61119;BME280;51448;51.660;5.824;2024-03-29T06:55:11;99128.66;;;8.09;100.00
61119;BME280;51448;51.660;5.824;2024-03-29T06:57:38;99126.81;;;8.13;100.00
61119;BME280;51448;51.660;5.824;2024-03-29T07:00:05;99121.34;;;8.13;100.00
61119;BME280;51448;51.660;5.824;2024-03-29T07:02:32;99124.44;;;8.12;100.00
61119;BME280;51448;51.660;5.824;2024-03-29T07:04:58;99115.38;;;8.11;100.00
61119;BME280;51448;51.660;5.824;2024-03-29T07:07:31;99127.97;;;8.12;100.00
61119;BME280;51448;51.660;5.824;2024-03-29T07:09:58;99126.81;;;8.13;100.00
61119;BME280;51448;51.660;5.824;2024-03-29T07:12:24;99122.59;;;8.16;100.00
61119;BME280;51448;51.660;5.824;2024-03-29T07:14:51;99123.06;;;8.18;100.00
61119;BME280;51448;51.660;5.824;2024-03-29T07:17:18;99125.91;;;8.22;100.00
61119;BME280;51448;51.660;5.824;2024-03-29T07:19:44;99125.56;;;8.23;100.00
61119;BME280;51448;51.660;5.824;2024-03-29T07:22:11;99139.75;;;8.25;100.00
61119;BME280;51448;51.660;5.824;2024-03-29T07:24:37;99143.84;;;8.31;100.00
61119;BME280;51448;51.660;5.824;2024-03-29T07:27:04;99150.28;;;8.35;100.00
61119;BME280;51448;51.660;5.824;2024-03-29T07:29:30;99164.97;;;8.39;100.00
61119;BME280;51448;51.660;5.824;2024-03-29T07:32:00;99163.13;;;8.43;100.00
61119;BME280;51448;51.660;5.824;2024-03-29T07:34:27;99168.41;;;8.49;100.00
61119;BME280;51448;51.660;5.824;2024-03-29T07:36:53;99174.47;;;8.54;100.00
61119;BME280;51448;51.660;5.824;2024-03-29T07:39:20;99171.91;;;8.61;100.00
61119;BME280;51448;51.660;5.824;2024-03-29T07:41:46;99177.19;;;8.66;100.00
61119;BME280;51448;51.660;5.824;2024-03-29T07:44:13;99173.38;;;8.71;100.00
61119;BME280;51448;51.660;5.824;2024-03-29T07:46:39;99153.91;;;8.76;100.00
61119;BME280;51448;51.660;5.824;2024-03-29T07:49:06;99158.38;;;8.81;100.00
61119;BME280;51448;51.660;5.824;2024-03-29T07:51:34;99175.31;;;8.83;100.00
61119;BME280;51448;51.660;5.824;2024-03-29T07:54:00;99165.91;;;8.84;100.00
61119;BME280;51448;51.660;5.824;2024-03-29T07:56:27;99166.69;;;8.84;100.00
61119;BME280;51448;51.660;5.824;2024-03-29T07:58:54;99177.00;;;8.87;100.00
61119;BME280;51448;51.660;5.824;2024-03-29T08:01:22;99173.53;;;8.90;100.00
61119;BME280;51448;51.660;5.824;2024-03-29T08:03:52;99156.00;;;8.95;100.00
61119;BME280;51448;51.660;5.824;2024-03-29T08:06:22;99153.72;;;8.97;100.00
61119;BME280;51448;51.660;5.824;2024-03-29T08:08:51;99160.09;;;9.01;100.00
61119;BME280;51448;51.660;5.824;2024-03-29T08:11:18;99157.91;;;9.07;100.00
61119;BME280;51448;51.660;5.824;2024-03-29T08:13:45;99147.00;;;9.10;100.00
61119;BME280;51448;51.660;5.824;2024-03-29T08:16:11;99145.25;;;9.18;100.00
61119;BME280;51448;51.660;5.824;2024-03-29T08:18:38;99144.56;;;9.21;100.00
61119;BME280;51448;51.660;5.824;2024-03-29T08:21:04;99143.50;;;9.26;100.00
61119;BME280;51448;51.660;5.824;2024-03-29T08:23:39;99153.47;;;9.30;100.00
61119;BME280;51448;51.660;5.824;2024-03-29T08:26:06;99158.59;;;9.32;100.00
61119;BME280;51448;51.660;5.824;2024-03-29T08:28:33;99148.50;;;9.36;100.00
61119;BME280;51448;51.660;5.824;2024-03-29T08:31:04;99140.78;;;9.41;100.00
61119;BME280;51448;51.660;5.824;2024-03-29T08:33:32;99149.13;;;9.45;100.00
61119;BME280;51448;51.660;5.824;2024-03-29T08:35:59;99161.03;;;9.49;100.00
61119;BME280;51448;51.660;5.824;2024-03-29T08:38:25;99169.03;;;9.54;100.00
61119;BME280;51448;51.660;5.824;2024-03-29T08:40:52;99167.25;;;9.62;100.00
61119;BME280;51448;51.660;5.824;2024-03-29T08:43:18;99165.88;;;9.68;100.00
61119;BME280;51448;51.660;5.824;2024-03-29T08:45:45;99168.34;;;9.73;100.00
61119;BME280;51448;51.660;5.824;2024-03-29T08:48:12;99164.63;;;9.81;100.00
61119;BME280;51448;51.660;5.824;2024-03-29T08:50:39;99158.47;;;9.88;99.70
61119;BME280;51448;51.660;5.824;2024-03-29T08:53:06;99168.81;;;9.91;99.76
61119;BME280;51448;51.660;5.824;2024-03-29T08:55:33;99166.59;;;9.96;99.98
61119;BME280;51448;51.660;5.824;2024-03-29T08:58:01;99175.38;;;10.02;100.00
61119;BME280;51448;51.660;5.824;2024-03-29T09:00:30;99199.97;;;10.11;100.00
61119;BME280;51448;51.660;5.824;2024-03-29T09:02:57;99194.66;;;10.18;99.93
61119;BME280;51448;51.660;5.824;2024-03-29T09:05:25;99194.84;;;10.25;99.75
61119;BME280;51448;51.660;5.824;2024-03-29T09:07:53;99191.47;;;10.32;99.75
61119;BME280;51448;51.660;5.824;2024-03-29T09:10:22;99184.19;;;10.39;99.80
61119;BME280;51448;51.660;5.824;2024-03-29T09:12:50;99175.25;;;10.46;99.70
61119;BME280;51448;51.660;5.824;2024-03-29T09:15:17;99167.94;;;10.53;99.31
61119;BME280;51448;51.660;5.824;2024-03-29T09:17:43;99185.91;;;10.63;99.49
61119;BME280;51448;51.660;5.824;2024-03-29T09:20:11;99189.31;;;10.76;99.48
61119;BME280;51448;51.660;5.824;2024-03-29T09:22:37;99193.56;;;10.89;99.74
61119;BME280;51448;51.660;5.824;2024-03-29T09:25:04;99191.03;;;11.00;98.89
61119;BME280;51448;51.660;5.824;2024-03-29T09:27:31;99187.63;;;11.06;98.84
61119;BME280;51448;51.660;5.824;2024-03-29T09:30:03;99192.94;;;11.15;98.47
61119;BME280;51448;51.660;5.824;2024-03-29T09:32:33;99194.59;;;11.20;98.20
61119;BME280;51448;51.660;5.824;2024-03-29T09:35:00;99189.16;;;11.23;97.82
61119;BME280;51448;51.660;5.824;2024-03-29T09:37:27;99192.34;;;11.25;97.49
61119;BME280;51448;51.660;5.824;2024-03-29T09:39:53;99197.22;;;11.32;97.69
61119;BME280;51448;51.660;5.824;2024-03-29T09:42:22;99192.25;;;11.41;97.92
61119;BME280;51448;51.660;5.824;2024-03-29T09:44:55;99209.41;;;11.50;97.47
61119;BME280;51448;51.660;5.824;2024-03-29T09:47:24;99215.50;;;11.59;97.79
61119;BME280;51448;51.660;5.824;2024-03-29T09:49:53;99223.63;;;11.72;97.28
61119;BME280;51448;51.660;5.824;2024-03-29T09:52:21;99221.50;;;11.84;96.94
61119;BME280;51448;51.660;5.824;2024-03-29T09:54:49;99215.03;;;11.96;96.63
61119;BME280;51448;51.660;5.824;2024-03-29T09:57:17;99227.13;;;12.11;95.21
61119;BME280;51448;51.660;5.824;2024-03-29T09:59:43;99230.50;;;12.24;94.67
61119;BME280;51448;51.660;5.824;2024-03-29T10:02:17;99235.47;;;12.37;93.36
61119;BME280;51448;51.660;5.824;2024-03-29T10:04:48;99229.25;;;12.44;93.39
61119;BME280;51448;51.660;5.824;2024-03-29T10:07:19;99233.28;;;12.50;93.42
61119;BME280;51448;51.660;5.824;2024-03-29T10:09:46;99231.06;;;12.59;91.88
61119;BME280;51448;51.660;5.824;2024-03-29T10:12:13;99232.72;;;12.64;91.42
61119;BME280;51448;51.660;5.824;2024-03-29T10:14:46;99232.47;;;12.73;91.67
61119;BME280;51448;51.660;5.824;2024-03-29T10:17:19;99222.34;;;12.84;90.33
61119;BME280;51448;51.660;5.824;2024-03-29T10:19:46;99219.66;;;12.91;89.44
61119;BME280;51448;51.660;5.824;2024-03-29T10:22:16;99213.03;;;12.99;89.05
61119;BME280;51448;51.660;5.824;2024-03-29T10:24:43;99215.94;;;13.06;89.72
61119;BME280;51448;51.660;5.824;2024-03-29T10:27:10;99214.03;;;13.14;89.80
61119;BME280;51448;51.660;5.824;2024-03-29T10:29:36;99214.59;;;13.23;85.69
61119;BME280;51448;51.660;5.824;2024-03-29T10:32:03;99225.59;;;13.20;85.54
61119;BME280;51448;51.660;5.824;2024-03-29T10:34:30;99218.44;;;13.19;85.80
61119;BME280;51448;51.660;5.824;2024-03-29T10:37:01;99224.88;;;13.23;86.27
61119;BME280;51448;51.660;5.824;2024-03-29T10:39:30;99216.22;;;13.28;85.55
61119;BME280;51448;51.660;5.824;2024-03-29T10:41:58;99219.09;;;13.35;84.58
61119;BME280;51448;51.660;5.824;2024-03-29T10:44:26;99222.72;;;13.42;84.50
61119;BME280;51448;51.660;5.824;2024-03-29T10:46:56;99218.94;;;13.54;84.83
61119;BME280;51448;51.660;5.824;2024-03-29T10:49:24;99206.38;;;13.67;84.67
61119;BME280;51448;51.660;5.824;2024-03-29T10:51:53;99218.78;;;13.81;84.09
61119;BME280;51448;51.660;5.824;2024-03-29T10:54:19;99213.78;;;13.93;83.53
61119;BME280;51448;51.660;5.824;2024-03-29T10:56:47;99228.16;;;14.06;82.05
61119;BME280;51448;51.660;5.824;2024-03-29T10:59:35;99232.22;;;14.16;82.15
61119;BME280;51448;51.660;5.824;2024-03-29T11:02:29;99241.03;;;14.25;81.12
61119;BME280;51448;51.660;5.824;2024-03-29T11:05:02;99248.56;;;14.28;79.10
61119;BME280;51448;51.660;5.824;2024-03-29T11:07:39;99250.56;;;14.28;77.83
61119;BME280;51448;51.660;5.824;2024-03-29T11:10:13;99250.94;;;14.26;76.78
61119;BME280;51448;51.660;5.824;2024-03-29T11:12:53;99250.09;;;14.22;75.95
61119;BME280;51448;51.660;5.824;2024-03-29T11:15:28;99241.69;;;14.11;75.25
61119;BME280;51448;51.660;5.824;2024-03-29T11:17:57;99247.56;;;14.03;75.96
61119;BME280;51448;51.660;5.824;2024-03-29T11:20:25;99236.81;;;14.01;75.82
61119;BME280;51448;51.660;5.824;2024-03-29T11:23:14;99214.69;;;14.05;77.02
61119;BME280;51448;51.660;5.824;2024-03-29T11:25:45;99205.22;;;14.13;77.63
61119;BME280;51448;51.660;5.824;2024-03-29T11:28:22;99206.09;;;14.20;76.12
61119;BME280;51448;51.660;5.824;2024-03-29T11:30:57;99217.59;;;14.23;76.47
61119;BME280;51448;51.660;5.824;2024-03-29T11:36:29;99232.75;;;14.32;74.15
61119;BME280;51448;51.660;5.824;2024-03-29T11:38:58;99249.41;;;14.32;74.10
61119;BME280;51448;51.660;5.824;2024-03-29T11:41:26;99258.56;;;14.36;73.30
61119;BME280;51448;51.660;5.824;2024-03-29T11:43:54;99261.34;;;14.36;72.87
61119;BME280;51448;51.660;5.824;2024-03-29T11:46:21;99256.59;;;14.37;73.04
61119;BME280;51448;51.660;5.824;2024-03-29T11:48:49;99268.53;;;14.41;72.84
61119;BME280;51448;51.660;5.824;2024-03-29T11:51:19;99254.72;;;14.48;73.40
61119;BME280;51448;51.660;5.824;2024-03-29T11:53:48;99261.16;;;14.59;73.65
61119;BME280;51448;51.660;5.824;2024-03-29T11:56:18;99254.47;;;14.67;72.40
61119;BME280;51448;51.660;5.824;2024-03-29T11:58:46;99256.94;;;14.80;71.98
61119;BME280;51448;51.660;5.824;2024-03-29T12:01:15;99265.28;;;14.83;71.42
61119;BME280;51448;51.660;5.824;2024-03-29T12:03:43;99258.22;;;14.93;71.61
61119;BME280;51448;51.660;5.824;2024-03-29T12:06:14;99264.25;;;15.02;72.17
61119;BME280;51448;51.660;5.824;2024-03-29T12:08:43;99272.63;;;15.13;71.97
61119;BME280;51448;51.660;5.824;2024-03-29T12:11:10;99270.69;;;15.17;69.49
61119;BME280;51448;51.660;5.824;2024-03-29T12:13:37;99269.84;;;15.16;67.20
61119;BME280;51448;51.660;5.824;2024-03-29T12:16:05;99278.19;;;15.16;67.47
61119;BME280;51448;51.660;5.824;2024-03-29T12:18:32;99271.88;;;15.19;65.54
61119;BME280;51448;51.660;5.824;2024-03-29T12:20:59;99278.25;;;15.23;65.27
61119;BME280;51448;51.660;5.824;2024-03-29T12:23:26;99274.31;;;15.28;65.36
61119;BME280;51448;51.660;5.824;2024-03-29T12:25:54;99275.13;;;15.36;65.30
61119;BME280;51448;51.660;5.824;2024-03-29T12:28:26;99269.22;;;15.44;64.41
61119;BME280;51448;51.660;5.824;2024-03-29T12:30:54;99270.03;;;15.52;65.13
61119;BME280;51448;51.660;5.824;2024-03-29T12:33:22;99270.50;;;15.65;64.92
61119;BME280;51448;51.660;5.824;2024-03-29T12:35:52;99268.97;;;15.74;64.92
61119;BME280;51448;51.660;5.824;2024-03-29T12:38:21;99272.16;;;15.87;65.04
61119;BME280;51448;51.660;5.824;2024-03-29T12:40:50;99276.59;;;15.99;64.51
61119;BME280;51448;51.660;5.824;2024-03-29T12:43:22;99262.69;;;16.06;64.21
61119;BME280;51448;51.660;5.824;2024-03-29T12:45:50;99274.63;;;16.10;64.28
61119;BME280;51448;51.660;5.824;2024-03-29T12:48:19;99265.47;;;16.13;63.98
61119;BME280;51448;51.660;5.824;2024-03-29T12:50:47;99264.69;;;16.20;62.57
61119;BME280;51448;51.660;5.824;2024-03-29T12:53:15;99269.06;;;16.24;62.43
61119;BME280;51448;51.660;5.824;2024-03-29T12:55:44;99261.13;;;16.23;61.28
61119;BME280;51448;51.660;5.824;2024-03-29T12:58:14;99263.50;;;16.17;61.41
61119;BME280;51448;51.660;5.824;2024-03-29T13:00:44;99273.03;;;16.20;61.83
61119;BME280;51448;51.660;5.824;2024-03-29T13:03:12;99264.31;;;16.25;61.67
61119;BME280;51448;51.660;5.824;2024-03-29T13:05:39;99252.41;;;16.32;61.78
61119;BME280;51448;51.660;5.824;2024-03-29T13:08:09;99262.72;;;16.35;61.04
61119;BME280;51448;51.660;5.824;2024-03-29T13:10:39;99267.09;;;16.39;61.36
61119;BME280;51448;51.660;5.824;2024-03-29T13:13:07;99273.47;;;16.47;62.47
61119;BME280;51448;51.660;5.824;2024-03-29T13:15:36;99265.53;;;16.56;63.21